Airfield :
LOGIN :

Register | Disclaimer

   EN    FR    IT 

 










Legend :    VFR   Marginal VFR   IFR   Intensive IFR   Very Intensive IFR
Visi :
Ceiling :
>= 8 km
>= 3000ft
5 to 8 km
1000 to 3000 ft
1500m to 5 km
500 to 1000 ft
800 to 1500m
200 to 500 ft
< 800m
< 200 ft
Symbols :   Thunderstorms  Fog  Heavy snow  Heavy precipitations  Wind > 20 kt
SIGMETs :     Misc.  Thunderstorms  Icing  Turbulence  Mountain Waves  Volcanic Ashes






- Airport Elevation : 1682 ft
- IATA code : VIT


LEVT - Vitoria Gasteiz

CURRENT METAR :
  • 280700Z VRB01KT 9999 FEW021 BKN032 05/05 Q1021

EXPIRED METARs :
  • 280630Z VRB02KT 9999 -SHRA SCT024 FEW030TCU BKN038 05/05 Q1021
  • 280600Z 27003KT 230V320 9999 FEW022 BKN032 05/05 Q1021
  • 280530Z 24003KT 200V290 9999 FEW022 SCT034 05/05 Q1021
  • 280500Z 18004KT 150V210 9999 FEW022 BKN034 06/06 Q1021

TAF TAF LEVT
Valid from the 28 at 06:00 until the 29 at 06:00 UTC


280500Z 2806/2906 22009KT 9999 SCT020 TX09/2814Z TN03/2808Z
PROB40
TEMPO 2806/2906 3000 RA BKN010
PROB30
TEMPO 2806/2906 1500 SHRA BKN005 SCT030TCU
PROB40
TEMPO 2812/2814 29010KT
TEMPO 2900/2906 29010KT



MET'MAP, your aeronautical weather chart ! - Copyright ORBIFLY December 2007 - Disclaimer

ORBIFLY MET'MAP TEAM :

Programming & Development : Alexandra Zaïnal
Original concept : Baudouin d'Aumeries
Technical & hardware support : Manuel Goepfert
Assistance : Marc-Olivier Méhu




SOURCES & CREDITS :

   NOAA